sensor_id;sensor_type;location;lat;lon;timestamp;temperature;humidity
27671;DHT22;15077;49.704;9.908;2024-01-15T00:01:54;-0.50;70.40
27671;DHT22;15077;49.704;9.908;2024-01-15T00:04:20;-0.50;70.20
27671;DHT22;15077;49.704;9.908;2024-01-15T00:06:46;-0.40;70.30
27671;DHT22;15077;49.704;9.908;2024-01-15T00:09:13;-0.40;70.40
27671;DHT22;15077;49.704;9.908;2024-01-15T00:11:40;-0.40;70.40
27671;DHT22;15077;49.704;9.908;2024-01-15T00:14:05;-0.40;70.30
27671;DHT22;15077;49.704;9.908;2024-01-15T00:16:31;-0.40;70.40
27671;DHT22;15077;49.704;9.908;2024-01-15T00:18:57;-0.40;70.40
27671;DHT22;15077;49.704;9.908;2024-01-15T00:21:23;-0.40;70.50
27671;DHT22;15077;49.704;9.908;2024-01-15T00:23:48;-0.40;70.50
27671;DHT22;15077;49.704;9.908;2024-01-15T00:26:14;-0.40;70.50
27671;DHT22;15077;49.704;9.908;2024-01-15T00:28:40;-0.40;70.50
27671;DHT22;15077;49.704;9.908;2024-01-15T00:31:06;-0.30;70.40
27671;DHT22;15077;49.704;9.908;2024-01-15T00:33:31;-0.30;70.30
27671;DHT22;15077;49.704;9.908;2024-01-15T00:35:57;-0.30;70.30
27671;DHT22;15077;49.704;9.908;2024-01-15T00:38:23;-0.30;70.20
27671;DHT22;15077;49.704;9.908;2024-01-15T00:40:48;-0.30;70.20
27671;DHT22;15077;49.704;9.908;2024-01-15T00:43:14;-0.20;70.20
27671;DHT22;15077;49.704;9.908;2024-01-15T00:45:43;-0.20;70.20
27671;DHT22;15077;49.704;9.908;2024-01-15T00:48:09;-0.20;70.20
27671;DHT22;15077;49.704;9.908;2024-01-15T00:50:34;-0.20;70.20
27671;DHT22;15077;49.704;9.908;2024-01-15T00:53:00;-0.20;70.20
27671;DHT22;15077;49.704;9.908;2024-01-15T00:55:26;-0.20;70.10
27671;DHT22;15077;49.704;9.908;2024-01-15T00:57:54;-0.10;70.20
27671;DHT22;15077;49.704;9.908;2024-01-15T01:00:19;-0.10;70.20
27671;DHT22;15077;49.704;9.908;2024-01-15T01:02:45;-0.10;70.20
27671;DHT22;15077;49.704;9.908;2024-01-15T01:05:10;-0.10;70.20
27671;DHT22;15077;49.704;9.908;2024-01-15T01:07:36;-0.10;70.20
27671;DHT22;15077;49.704;9.908;2024-01-15T01:10:02;-0.10;70.20
27671;DHT22;15077;49.704;9.908;2024-01-15T01:12:27;-0.10;70.30
27671;DHT22;15077;49.704;9.908;2024-01-15T01:14:55;-0.10;70.20
27671;DHT22;15077;49.704;9.908;2024-01-15T01:17:21;-0.10;70.20
27671;DHT22;15077;49.704;9.908;2024-01-15T01:19:46;-0.10;70.30
27671;DHT22;15077;49.704;9.908;2024-01-15T01:22:12;-0.10;70.20
27671;DHT22;15077;49.704;9.908;2024-01-15T01:24:38;-0.10;70.30
27671;DHT22;15077;49.704;9.908;2024-01-15T01:27:03;-0.10;70.40
27671;DHT22;15077;49.704;9.908;2024-01-15T01:29:29;-0.10;70.30
27671;DHT22;15077;49.704;9.908;2024-01-15T01:31:55;-0.10;70.40
27671;DHT22;15077;49.704;9.908;2024-01-15T01:34:21;-0.10;70.40
27671;DHT22;15077;49.704;9.908;2024-01-15T01:36:47;-0.10;70.40
27671;DHT22;15077;49.704;9.908;2024-01-15T01:39:13;-0.10;70.50
27671;DHT22;15077;49.704;9.908;2024-01-15T01:41:38;0.00;70.60
27671;DHT22;15077;49.704;9.908;2024-01-15T01:44:05;0.00;70.60
27671;DHT22;15077;49.704;9.908;2024-01-15T01:46:31;0.00;70.60
27671;DHT22;15077;49.704;9.908;2024-01-15T01:48:57;0.00;70.60
27671;DHT22;15077;49.704;9.908;2024-01-15T01:51:23;0.00;70.60
27671;DHT22;15077;49.704;9.908;2024-01-15T01:53:49;0.00;70.60
27671;DHT22;15077;49.704;9.908;2024-01-15T01:56:16;0.00;70.50
27671;DHT22;15077;49.704;9.908;2024-01-15T01:58:43;0.00;70.50
27671;DHT22;15077;49.704;9.908;2024-01-15T02:01:10;0.00;70.40
27671;DHT22;15077;49.704;9.908;2024-01-15T02:03:37;0.10;70.40
27671;DHT22;15077;49.704;9.908;2024-01-15T02:06:04;0.00;70.40
27671;DHT22;15077;49.704;9.908;2024-01-15T02:08:30;0.10;70.40
27671;DHT22;15077;49.704;9.908;2024-01-15T02:10:56;0.10;70.40
27671;DHT22;15077;49.704;9.908;2024-01-15T02:13:21;0.00;70.40
27671;DHT22;15077;49.704;9.908;2024-01-15T02:15:47;0.10;70.40
27671;DHT22;15077;49.704;9.908;2024-01-15T02:18:13;0.10;70.40
27671;DHT22;15077;49.704;9.908;2024-01-15T02:20:38;0.10;70.40
27671;DHT22;15077;49.704;9.908;2024-01-15T02:23:11;0.10;70.40
27671;DHT22;15077;49.704;9.908;2024-01-15T02:25:41;0.10;70.40
27671;DHT22;15077;49.704;9.908;2024-01-15T02:28:09;0.20;70.50
27671;DHT22;15077;49.704;9.908;2024-01-15T02:30:37;0.20;70.40
27671;DHT22;15077;49.704;9.908;2024-01-15T02:33:04;0.20;70.50
27671;DHT22;15077;49.704;9.908;2024-01-15T02:35:30;0.20;70.70
27671;DHT22;15077;49.704;9.908;2024-01-15T02:37:56;0.20;70.70
27671;DHT22;15077;49.704;9.908;2024-01-15T02:40:22;0.20;70.70
27671;DHT22;15077;49.704;9.908;2024-01-15T02:42:48;0.20;70.80
27671;DHT22;15077;49.704;9.908;2024-01-15T02:45:13;0.20;70.80
27671;DHT22;15077;49.704;9.908;2024-01-15T02:47:39;0.30;70.90
27671;DHT22;15077;49.704;9.908;2024-01-15T02:50:05;0.30;70.80
27671;DHT22;15077;49.704;9.908;2024-01-15T02:52:31;0.20;70.80
27671;DHT22;15077;49.704;9.908;2024-01-15T02:54:56;0.30;70.90
27671;DHT22;15077;49.704;9.908;2024-01-15T02:57:22;0.30;70.90
27671;DHT22;15077;49.704;9.908;2024-01-15T02:59:47;0.30;70.90
27671;DHT22;15077;49.704;9.908;2024-01-15T03:02:13;0.30;71.00
27671;DHT22;15077;49.704;9.908;2024-01-15T03:04:42;0.30;71.00
27671;DHT22;15077;49.704;9.908;2024-01-15T03:07:11;0.30;71.00
27671;DHT22;15077;49.704;9.908;2024-01-15T03:09:37;0.30;71.10
27671;DHT22;15077;49.704;9.908;2024-01-15T03:12:02;0.30;71.10
27671;DHT22;15077;49.704;9.908;2024-01-15T03:14:28;0.30;71.20
27671;DHT22;15077;49.704;9.908;2024-01-15T03:16:54;0.30;71.10
27671;DHT22;15077;49.704;9.908;2024-01-15T03:19:20;0.40;71.20
27671;DHT22;15077;49.704;9.908;2024-01-15T03:21:45;0.40;71.20
27671;DHT22;15077;49.704;9.908;2024-01-15T03:24:11;0.40;71.10
27671;DHT22;15077;49.704;9.908;2024-01-15T03:26:36;0.40;71.10
27671;DHT22;15077;49.704;9.908;2024-01-15T03:29:02;0.40;71.00
27671;DHT22;15077;49.704;9.908;2024-01-15T03:31:28;0.50;70.90
27671;DHT22;15077;49.704;9.908;2024-01-15T03:33:53;0.50;70.90
27671;DHT22;15077;49.704;9.908;2024-01-15T03:36:19;0.50;70.90
27671;DHT22;15077;49.704;9.908;2024-01-15T03:38:45;0.60;70.90
27671;DHT22;15077;49.704;9.908;2024-01-15T03:41:10;0.60;70.90
27671;DHT22;15077;49.704;9.908;2024-01-15T03:43:36;0.60;70.90
27671;DHT22;15077;49.704;9.908;2024-01-15T03:46:01;0.60;70.80
27671;DHT22;15077;49.704;9.908;2024-01-15T03:48:27;0.60;70.80
27671;DHT22;15077;49.704;9.908;2024-01-15T03:50:53;0.60;70.70
27671;DHT22;15077;49.704;9.908;2024-01-15T03:53:19;0.60;70.70
27671;DHT22;15077;49.704;9.908;2024-01-15T03:55:44;0.70;70.70
27671;DHT22;15077;49.704;9.908;2024-01-15T03:58:10;0.70;70.70
27671;DHT22;15077;49.704;9.908;2024-01-15T04:00:36;0.70;70.70
27671;DHT22;15077;49.704;9.908;2024-01-15T04:03:02;0.70;70.70
27671;DHT22;15077;49.704;9.908;2024-01-15T04:05:28;0.70;70.70
27671;DHT22;15077;49.704;9.908;2024-01-15T04:07:53;0.70;70.70
27671;DHT22;15077;49.704;9.908;2024-01-15T04:10:19;0.70;70.70
27671;DHT22;15077;49.704;9.908;2024-01-15T04:12:45;0.70;70.70
27671;DHT22;15077;49.704;9.908;2024-01-15T04:15:13;0.70;70.70
27671;DHT22;15077;49.704;9.908;2024-01-15T04:17:38;0.70;70.70
27671;DHT22;15077;49.704;9.908;2024-01-15T04:20:04;0.80;70.70
27671;DHT22;15077;49.704;9.908;2024-01-15T04:22:30;0.70;70.70
27671;DHT22;15077;49.704;9.908;2024-01-15T04:24:56;0.70;70.70
27671;DHT22;15077;49.704;9.908;2024-01-15T04:27:21;0.80;70.70
27671;DHT22;15077;49.704;9.908;2024-01-15T04:29:47;0.80;70.70
27671;DHT22;15077;49.704;9.908;2024-01-15T04:32:13;0.80;70.70
27671;DHT22;15077;49.704;9.908;2024-01-15T04:34:38;0.80;70.70
27671;DHT22;15077;49.704;9.908;2024-01-15T04:37:04;0.80;70.80
27671;DHT22;15077;49.704;9.908;2024-01-15T04:39:29;0.80;70.80
27671;DHT22;15077;49.704;9.908;2024-01-15T04:41:55;0.80;70.80
27671;DHT22;15077;49.704;9.908;2024-01-15T04:44:20;0.80;70.80
27671;DHT22;15077;49.704;9.908;2024-01-15T04:46:46;0.90;70.80
27671;DHT22;15077;49.704;9.908;2024-01-15T04:49:12;0.90;70.80
27671;DHT22;15077;49.704;9.908;2024-01-15T04:51:37;0.90;70.70
27671;DHT22;15077;49.704;9.908;2024-01-15T04:54:03;0.90;70.70
27671;DHT22;15077;49.704;9.908;2024-01-15T04:56:29;0.90;70.70
27671;DHT22;15077;49.704;9.908;2024-01-15T04:58:55;0.90;70.80
27671;DHT22;15077;49.704;9.908;2024-01-15T05:01:20;1.00;70.90
27671;DHT22;15077;49.704;9.908;2024-01-15T05:03:46;1.00;70.90
27671;DHT22;15077;49.704;9.908;2024-01-15T05:06:11;1.00;70.90
27671;DHT22;15077;49.704;9.908;2024-01-15T05:08:37;1.00;70.90
27671;DHT22;15077;49.704;9.908;2024-01-15T05:11:03;1.00;70.90
27671;DHT22;15077;49.704;9.908;2024-01-15T05:13:28;1.00;70.90
27671;DHT22;15077;49.704;9.908;2024-01-15T05:15:54;1.00;70.90
27671;DHT22;15077;49.704;9.908;2024-01-15T05:18:20;1.00;71.00
27671;DHT22;15077;49.704;9.908;2024-01-15T05:20:45;1.00;70.90
27671;DHT22;15077;49.704;9.908;2024-01-15T05:23:11;1.00;70.90
27671;DHT22;15077;49.704;9.908;2024-01-15T05:25:37;1.00;70.90
27671;DHT22;15077;49.704;9.908;2024-01-15T05:28:02;1.00;70.90
27671;DHT22;15077;49.704;9.908;2024-01-15T05:30:28;1.00;70.90
27671;DHT22;15077;49.704;9.908;2024-01-15T05:32:54;1.00;70.90
27671;DHT22;15077;49.704;9.908;2024-01-15T05:35:19;1.00;70.90
27671;DHT22;15077;49.704;9.908;2024-01-15T05:37:45;1.00;70.90
27671;DHT22;15077;49.704;9.908;2024-01-15T05:40:12;1.00;70.90
27671;DHT22;15077;49.704;9.908;2024-01-15T05:42:38;1.00;70.80
27671;DHT22;15077;49.704;9.908;2024-01-15T05:45:05;1.00;70.80
27671;DHT22;15077;49.704;9.908;2024-01-15T05:47:31;1.00;70.80
27671;DHT22;15077;49.704;9.908;2024-01-15T05:49:57;1.00;70.80
27671;DHT22;15077;49.704;9.908;2024-01-15T05:52:23;1.00;70.80
27671;DHT22;15077;49.704;9.908;2024-01-15T05:54:49;1.00;70.70
27671;DHT22;15077;49.704;9.908;2024-01-15T05:57:15;1.00;70.70
27671;DHT22;15077;49.704;9.908;2024-01-15T05:59:42;1.00;70.70
27671;DHT22;15077;49.704;9.908;2024-01-15T06:02:09;1.10;70.80
27671;DHT22;15077;49.704;9.908;2024-01-15T06:04:35;1.10;70.90
27671;DHT22;15077;49.704;9.908;2024-01-15T06:07:00;1.10;70.80
27671;DHT22;15077;49.704;9.908;2024-01-15T06:09:26;1.10;70.80
27671;DHT22;15077;49.704;9.908;2024-01-15T06:11:53;1.10;70.70
27671;DHT22;15077;49.704;9.908;2024-01-15T06:14:18;1.10;70.70
27671;DHT22;15077;49.704;9.908;2024-01-15T06:16:44;1.10;71.30
27671;DHT22;15077;49.704;9.908;2024-01-15T06:19:09;1.10;70.80
27671;DHT22;15077;49.704;9.908;2024-01-15T06:21:35;1.10;70.70
27671;DHT22;15077;49.704;9.908;2024-01-15T06:24:01;1.20;70.80
27671;DHT22;15077;49.704;9.908;2024-01-15T06:26:27;1.20;70.80
27671;DHT22;15077;49.704;9.908;2024-01-15T06:28:52;1.10;70.70
27671;DHT22;15077;49.704;9.908;2024-01-15T06:31:18;1.20;70.80
27671;DHT22;15077;49.704;9.908;2024-01-15T06:33:44;1.10;70.80
27671;DHT22;15077;49.704;9.908;2024-01-15T06:36:12;1.10;70.80
27671;DHT22;15077;49.704;9.908;2024-01-15T06:38:38;1.10;70.80
27671;DHT22;15077;49.704;9.908;2024-01-15T06:41:03;1.10;70.90
27671;DHT22;15077;49.704;9.908;2024-01-15T06:43:29;1.10;70.90
27671;DHT22;15077;49.704;9.908;2024-01-15T06:45:54;1.10;70.90
27671;DHT22;15077;49.704;9.908;2024-01-15T06:48:20;1.10;71.00
27671;DHT22;15077;49.704;9.908;2024-01-15T06:50:46;1.10;71.00
27671;DHT22;15077;49.704;9.908;2024-01-15T06:53:11;1.00;71.00
27671;DHT22;15077;49.704;9.908;2024-01-15T06:55:38;1.00;71.00
27671;DHT22;15077;49.704;9.908;2024-01-15T06:58:04;1.00;71.00
27671;DHT22;15077;49.704;9.908;2024-01-15T07:00:30;1.00;71.00
27671;DHT22;15077;49.704;9.908;2024-01-15T07:02:56;1.00;71.00
27671;DHT22;15077;49.704;9.908;2024-01-15T07:05:22;1.10;71.00
27671;DHT22;15077;49.704;9.908;2024-01-15T07:07:47;1.10;70.90
27671;DHT22;15077;49.704;9.908;2024-01-15T07:10:13;1.10;70.80
27671;DHT22;15077;49.704;9.908;2024-01-15T07:12:41;1.10;70.80
27671;DHT22;15077;49.704;9.908;2024-01-15T07:15:08;1.10;70.70
27671;DHT22;15077;49.704;9.908;2024-01-15T07:17:34;1.20;70.80
27671;DHT22;15077;49.704;9.908;2024-01-15T07:19:59;1.20;70.70
27671;DHT22;15077;49.704;9.908;2024-01-15T07:22:25;1.20;70.70
27671;DHT22;15077;49.704;9.908;2024-01-15T07:24:51;1.20;70.70
27671;DHT22;15077;49.704;9.908;2024-01-15T07:27:16;1.20;70.70
27671;DHT22;15077;49.704;9.908;2024-01-15T07:29:42;1.20;70.70
27671;DHT22;15077;49.704;9.908;2024-01-15T07:32:08;1.20;70.70
27671;DHT22;15077;49.704;9.908;2024-01-15T07:34:34;1.20;70.70
27671;DHT22;15077;49.704;9.908;2024-01-15T07:36:59;1.20;70.70
27671;DHT22;15077;49.704;9.908;2024-01-15T07:39:25;1.30;70.70
27671;DHT22;15077;49.704;9.908;2024-01-15T07:41:51;1.30;70.70
27671;DHT22;15077;49.704;9.908;2024-01-15T07:44:17;1.30;70.70
27671;DHT22;15077;49.704;9.908;2024-01-15T07:46:46;1.30;70.70
27671;DHT22;15077;49.704;9.908;2024-01-15T07:49:12;1.30;70.70
27671;DHT22;15077;49.704;9.908;2024-01-15T07:51:40;1.30;70.70
27671;DHT22;15077;49.704;9.908;2024-01-15T07:54:06;1.30;70.70
27671;DHT22;15077;49.704;9.908;2024-01-15T07:56:32;1.30;70.80
27671;DHT22;15077;49.704;9.908;2024-01-15T07:58:58;1.40;70.90
27671;DHT22;15077;49.704;9.908;2024-01-15T08:01:24;1.30;70.90
27671;DHT22;15077;49.704;9.908;2024-01-15T08:03:49;1.30;71.00
27671;DHT22;15077;49.704;9.908;2024-01-15T08:06:15;1.40;71.00
27671;DHT22;15077;49.704;9.908;2024-01-15T08:08:41;1.30;71.00
27671;DHT22;15077;49.704;9.908;2024-01-15T08:11:07;1.30;70.90
27671;DHT22;15077;49.704;9.908;2024-01-15T08:13:32;1.40;71.00
27671;DHT22;15077;49.704;9.908;2024-01-15T08:15:58;1.30;70.90
27671;DHT22;15077;49.704;9.908;2024-01-15T08:18:24;1.40;71.00
27671;DHT22;15077;49.704;9.908;2024-01-15T08:20:50;1.40;71.00
27671;DHT22;15077;49.704;9.908;2024-01-15T08:23:17;1.40;70.90
27671;DHT22;15077;49.704;9.908;2024-01-15T08:25:43;1.40;70.90
27671;DHT22;15077;49.704;9.908;2024-01-15T08:28:08;1.40;71.00
27671;DHT22;15077;49.704;9.908;2024-01-15T08:30:34;1.40;71.00
27671;DHT22;15077;49.704;9.908;2024-01-15T08:32:59;1.50;71.00
27671;DHT22;15077;49.704;9.908;2024-01-15T08:35:25;1.50;71.10
27671;DHT22;15077;49.704;9.908;2024-01-15T08:37:51;1.50;71.20
27671;DHT22;15077;49.704;9.908;2024-01-15T08:40:18;1.50;71.20
27671;DHT22;15077;49.704;9.908;2024-01-15T08:42:44;1.50;71.20
27671;DHT22;15077;49.704;9.908;2024-01-15T08:45:11;1.50;71.30
27671;DHT22;15077;49.704;9.908;2024-01-15T08:47:37;1.50;71.30
27671;DHT22;15077;49.704;9.908;2024-01-15T08:50:03;1.60;71.40
27671;DHT22;15077;49.704;9.908;2024-01-15T08:52:29;1.60;71.50
27671;DHT22;15077;49.704;9.908;2024-01-15T08:54:56;1.60;71.50
27671;DHT22;15077;49.704;9.908;2024-01-15T08:57:22;1.60;71.50
27671;DHT22;15077;49.704;9.908;2024-01-15T08:59:47;1.60;72.10
27671;DHT22;15077;49.704;9.908;2024-01-15T09:02:13;1.60;71.50
27671;DHT22;15077;49.704;9.908;2024-01-15T09:04:39;1.70;71.50
27671;DHT22;15077;49.704;9.908;2024-01-15T09:07:05;1.70;71.40
27671;DHT22;15077;49.704;9.908;2024-01-15T09:09:30;1.70;71.40
27671;DHT22;15077;49.704;9.908;2024-01-15T09:11:56;1.80;71.40
27671;DHT22;15077;49.704;9.908;2024-01-15T09:14:22;1.80;71.40
27671;DHT22;15077;49.704;9.908;2024-01-15T09:16:49;1.80;71.40
27671;DHT22;15077;49.704;9.908;2024-01-15T09:19:16;1.80;71.50
27671;DHT22;15077;49.704;9.908;2024-01-15T09:21:42;1.80;71.60
27671;DHT22;15077;49.704;9.908;2024-01-15T09:24:07;1.80;71.60
27671;DHT22;15077;49.704;9.908;2024-01-15T09:26:33;1.80;71.70
27671;DHT22;15077;49.704;9.908;2024-01-15T09:28:58;1.80;71.70
27671;DHT22;15077;49.704;9.908;2024-01-15T09:31:24;1.90;71.80
27671;DHT22;15077;49.704;9.908;2024-01-15T09:33:50;1.90;71.70
27671;DHT22;15077;49.704;9.908;2024-01-15T09:36:21;1.90;71.80
27671;DHT22;15077;49.704;9.908;2024-01-15T09:38:48;1.90;71.80
27671;DHT22;15077;49.704;9.908;2024-01-15T09:41:14;1.90;71.80
27671;DHT22;15077;49.704;9.908;2024-01-15T09:43:40;2.00;71.70
27671;DHT22;15077;49.704;9.908;2024-01-15T09:46:06;2.00;71.70
27671;DHT22;15077;49.704;9.908;2024-01-15T09:48:32;2.00;71.60
27671;DHT22;15077;49.704;9.908;2024-01-15T09:51:01;2.00;71.50
27671;DHT22;15077;49.704;9.908;2024-01-15T09:53:27;2.10;71.50
27671;DHT22;15077;49.704;9.908;2024-01-15T09:55:53;2.10;71.50
27671;DHT22;15077;49.704;9.908;2024-01-15T09:58:21;2.10;71.50
27671;DHT22;15077;49.704;9.908;2024-01-15T10:00:47;2.10;71.40
27671;DHT22;15077;49.704;9.908;2024-01-15T10:03:15;2.10;71.40
27671;DHT22;15077;49.704;9.908;2024-01-15T10:05:41;2.20;71.50
27671;DHT22;15077;49.704;9.908;2024-01-15T10:08:07;2.10;71.50
27671;DHT22;15077;49.704;9.908;2024-01-15T10:10:33;2.20;71.50
27671;DHT22;15077;49.704;9.908;2024-01-15T10:13:01;2.20;71.50
27671;DHT22;15077;49.704;9.908;2024-01-15T10:15:29;2.20;71.50
27671;DHT22;15077;49.704;9.908;2024-01-15T10:17:55;2.30;71.50
27671;DHT22;15077;49.704;9.908;2024-01-15T10:20:20;2.30;71.50
27671;DHT22;15077;49.704;9.908;2024-01-15T10:22:50;2.30;71.40
27671;DHT22;15077;49.704;9.908;2024-01-15T10:25:15;2.30;71.40
27671;DHT22;15077;49.704;9.908;2024-01-15T10:27:41;2.30;71.40
27671;DHT22;15077;49.704;9.908;2024-01-15T10:30:08;2.40;71.50
27671;DHT22;15077;49.704;9.908;2024-01-15T10:32:34;2.40;71.40
27671;DHT22;15077;49.704;9.908;2024-01-15T10:35:00;2.40;71.30
27671;DHT22;15077;49.704;9.908;2024-01-15T10:37:25;2.50;71.40
27671;DHT22;15077;49.704;9.908;2024-01-15T10:39:52;2.50;71.40
27671;DHT22;15077;49.704;9.908;2024-01-15T10:42:18;2.50;71.30
27671;DHT22;15077;49.704;9.908;2024-01-15T10:44:44;2.50;71.10
27671;DHT22;15077;49.704;9.908;2024-01-15T10:47:12;2.60;71.10
27671;DHT22;15077;49.704;9.908;2024-01-15T10:49:38;2.60;71.00
27671;DHT22;15077;49.704;9.908;2024-01-15T10:52:05;2.60;70.80
27671;DHT22;15077;49.704;9.908;2024-01-15T10:54:31;2.60;70.80
27671;DHT22;15077;49.704;9.908;2024-01-15T10:56:57;2.60;70.70
27671;DHT22;15077;49.704;9.908;2024-01-15T10:59:23;2.60;70.70
27671;DHT22;15077;49.704;9.908;2024-01-15T11:01:50;2.60;70.60
27671;DHT22;15077;49.704;9.908;2024-01-15T11:04:21;2.60;70.70
27671;DHT22;15077;49.704;9.908;2024-01-15T11:06:52;2.70;70.70
27671;DHT22;15077;49.704;9.908;2024-01-15T11:09:22;2.70;70.60
27671;DHT22;15077;49.704;9.908;2024-01-15T11:11:53;2.60;70.40
27671;DHT22;15077;49.704;9.908;2024-01-15T11:14:38;2.60;70.40
27671;DHT22;15077;49.704;9.908;2024-01-15T11:17:05;2.60;70.40
27671;DHT22;15077;49.704;9.908;2024-01-15T11:19:50;2.60;70.40
27671;DHT22;15077;49.704;9.908;2024-01-15T11:24:57;2.60;70.50
27671;DHT22;15077;49.704;9.908;2024-01-15T11:27:39;2.60;70.50
27671;DHT22;15077;49.704;9.908;2024-01-15T11:30:09;2.60;70.50
27671;DHT22;15077;49.704;9.908;2024-01-15T11:32:38;2.60;70.60
27671;DHT22;15077;49.704;9.908;2024-01-15T11:35:08;2.60;70.70
27671;DHT22;15077;49.704;9.908;2024-01-15T11:42:58;2.70;70.90
27671;DHT22;15077;49.704;9.908;2024-01-15T11:45:23;2.70;70.90
27671;DHT22;15077;49.704;9.908;2024-01-15T11:50:27;2.80;70.90
27671;DHT22;15077;49.704;9.908;2024-01-15T11:52:59;2.80;70.80
27671;DHT22;15077;49.704;9.908;2024-01-15T11:55:27;2.90;70.90
27671;DHT22;15077;49.704;9.908;2024-01-15T11:57:55;2.90;70.90
27671;DHT22;15077;49.704;9.908;2024-01-15T12:00:23;2.90;70.90
27671;DHT22;15077;49.704;9.908;2024-01-15T12:02:53;3.00;70.90
27671;DHT22;15077;49.704;9.908;2024-01-15T12:05:20;3.00;70.80
27671;DHT22;15077;49.704;9.908;2024-01-15T12:07:49;3.00;70.80
27671;DHT22;15077;49.704;9.908;2024-01-15T12:10:19;3.10;70.80
27671;DHT22;15077;49.704;9.908;2024-01-15T12:12:53;3.10;70.80
27671;DHT22;15077;49.704;9.908;2024-01-15T12:15:23;3.10;70.70
27671;DHT22;15077;49.704;9.908;2024-01-15T12:17:49;3.20;70.80
27671;DHT22;15077;49.704;9.908;2024-01-15T12:20:15;3.20;70.70
27671;DHT22;15077;49.704;9.908;2024-01-15T12:22:42;3.20;70.70
27671;DHT22;15077;49.704;9.908;2024-01-15T12:25:09;3.20;70.80
27671;DHT22;15077;49.704;9.908;2024-01-15T12:27:34;3.20;70.70
27671;DHT22;15077;49.704;9.908;2024-01-15T12:30:00;3.30;70.70
27671;DHT22;15077;49.704;9.908;2024-01-15T12:32:26;3.30;70.70
27671;DHT22;15077;49.704;9.908;2024-01-15T12:34:52;3.30;70.70
27671;DHT22;15077;49.704;9.908;2024-01-15T12:37:18;3.30;70.70
27671;DHT22;15077;49.704;9.908;2024-01-15T12:39:44;3.30;70.70
27671;DHT22;15077;49.704;9.908;2024-01-15T12:42:10;3.30;70.70
27671;DHT22;15077;49.704;9.908;2024-01-15T12:44:36;3.30;70.70
27671;DHT22;15077;49.704;9.908;2024-01-15T12:47:05;3.30;70.70
27671;DHT22;15077;49.704;9.908;2024-01-15T12:49:32;3.30;70.60
27671;DHT22;15077;49.704;9.908;2024-01-15T12:51:58;3.30;70.50
27671;DHT22;15077;49.704;9.908;2024-01-15T12:54:25;3.30;70.50
27671;DHT22;15077;49.704;9.908;2024-01-15T12:56:51;3.30;70.50
27671;DHT22;15077;49.704;9.908;2024-01-15T12:59:18;3.30;70.60
27671;DHT22;15077;49.704;9.908;2024-01-15T13:01:44;3.30;70.60
27671;DHT22;15077;49.704;9.908;2024-01-15T13:04:11;3.40;70.80
27671;DHT22;15077;49.704;9.908;2024-01-15T13:06:45;3.40;70.60
27671;DHT22;15077;49.704;9.908;2024-01-15T13:09:11;3.40;70.60
27671;DHT22;15077;49.704;9.908;2024-01-15T13:11:37;3.40;70.70
27671;DHT22;15077;49.704;9.908;2024-01-15T13:14:03;3.50;70.60
27671;DHT22;15077;49.704;9.908;2024-01-15T13:16:28;3.50;70.50
27671;DHT22;15077;49.704;9.908;2024-01-15T13:18:54;3.60;70.40
27671;DHT22;15077;49.704;9.908;2024-01-15T13:21:21;3.60;70.20
27671;DHT22;15077;49.704;9.908;2024-01-15T13:23:47;3.60;70.10
27671;DHT22;15077;49.704;9.908;2024-01-15T13:26:13;3.70;70.30
27671;DHT22;15077;49.704;9.908;2024-01-15T13:28:39;3.70;70.20
27671;DHT22;15077;49.704;9.908;2024-01-15T13:31:05;3.80;69.90
27671;DHT22;15077;49.704;9.908;2024-01-15T13:33:31;3.80;69.70
27671;DHT22;15077;49.704;9.908;2024-01-15T13:35:56;3.80;69.70
27671;DHT22;15077;49.704;9.908;2024-01-15T13:38:22;3.80;69.60
27671;DHT22;15077;49.704;9.908;2024-01-15T13:40:47;3.80;69.50
27671;DHT22;15077;49.704;9.908;2024-01-15T13:43:13;3.80;69.60
27671;DHT22;15077;49.704;9.908;2024-01-15T13:45:40;3.80;69.40
27671;DHT22;15077;49.704;9.908;2024-01-15T13:48:06;3.80;69.40
27671;DHT22;15077;49.704;9.908;2024-01-15T13:50:36;3.80;69.60
27671;DHT22;15077;49.704;9.908;2024-01-15T13:53:02;3.70;69.50
27671;DHT22;15077;49.704;9.908;2024-01-15T13:55:34;3.70;69.50
27671;DHT22;15077;49.704;9.908;2024-01-15T13:58:00;3.70;69.50
27671;DHT22;15077;49.704;9.908;2024-01-15T14:00:25;3.70;69.40
27671;DHT22;15077;49.704;9.908;2024-01-15T14:02:51;3.70;69.30
27671;DHT22;15077;49.704;9.908;2024-01-15T14:05:16;3.70;69.50
27671;DHT22;15077;49.704;9.908;2024-01-15T14:07:42;3.60;69.50
27671;DHT22;15077;49.704;9.908;2024-01-15T14:10:08;3.60;69.60
27671;DHT22;15077;49.704;9.908;2024-01-15T14:12:35;3.60;69.50
27671;DHT22;15077;49.704;9.908;2024-01-15T14:15:02;3.60;69.60
27671;DHT22;15077;49.704;9.908;2024-01-15T14:17:28;3.60;69.80
27671;DHT22;15077;49.704;9.908;2024-01-15T14:19:54;3.60;69.90
27671;DHT22;15077;49.704;9.908;2024-01-15T14:22:20;3.60;70.10
27671;DHT22;15077;49.704;9.908;2024-01-15T14:24:45;3.60;70.10
27671;DHT22;15077;49.704;9.908;2024-01-15T14:27:11;3.60;70.30
27671;DHT22;15077;49.704;9.908;2024-01-15T14:29:37;3.50;70.30
27671;DHT22;15077;49.704;9.908;2024-01-15T14:32:03;3.60;70.30
27671;DHT22;15077;49.704;9.908;2024-01-15T14:34:29;3.60;70.40
27671;DHT22;15077;49.704;9.908;2024-01-15T14:36:54;3.60;70.50
27671;DHT22;15077;49.704;9.908;2024-01-15T14:39:21;3.60;70.40
27671;DHT22;15077;49.704;9.908;2024-01-15T14:41:47;3.60;70.50
27671;DHT22;15077;49.704;9.908;2024-01-15T14:44:13;3.60;70.50
27671;DHT22;15077;49.704;9.908;2024-01-15T14:46:39;3.60;70.50
27671;DHT22;15077;49.704;9.908;2024-01-15T14:49:05;3.50;70.50
27671;DHT22;15077;49.704;9.908;2024-01-15T14:51:31;3.50;70.50
27671;DHT22;15077;49.704;9.908;2024-01-15T14:53:57;3.50;70.40
27671;DHT22;15077;49.704;9.908;2024-01-15T14:56:22;3.50;70.50
27671;DHT22;15077;49.704;9.908;2024-01-15T14:58:48;3.50;70.50
27671;DHT22;15077;49.704;9.908;2024-01-15T15:01:14;3.50;70.50
27671;DHT22;15077;49.704;9.908;2024-01-15T15:03:39;3.50;70.50
27671;DHT22;15077;49.704;9.908;2024-01-15T15:06:05;3.50;70.50
27671;DHT22;15077;49.704;9.908;2024-01-15T15:08:33;3.50;70.60
27671;DHT22;15077;49.704;9.908;2024-01-15T15:10:59;3.50;70.50
27671;DHT22;15077;49.704;9.908;2024-01-15T15:13:25;3.50;70.50
27671;DHT22;15077;49.704;9.908;2024-01-15T15:15:51;3.50;70.50
27671;DHT22;15077;49.704;9.908;2024-01-15T15:18:19;3.50;70.40
27671;DHT22;15077;49.704;9.908;2024-01-15T15:20:44;3.50;71.10
27671;DHT22;15077;49.704;9.908;2024-01-15T15:23:10;3.50;70.50
27671;DHT22;15077;49.704;9.908;2024-01-15T15:25:36;3.50;70.40
27671;DHT22;15077;49.704;9.908;2024-01-15T15:28:02;3.50;70.40
27671;DHT22;15077;49.704;9.908;2024-01-15T15:30:30;3.50;70.40
27671;DHT22;15077;49.704;9.908;2024-01-15T15:33:02;3.50;70.40
27671;DHT22;15077;49.704;9.908;2024-01-15T15:35:28;3.50;70.40
27671;DHT22;15077;49.704;9.908;2024-01-15T15:37:54;3.50;70.40
27671;DHT22;15077;49.704;9.908;2024-01-15T15:40:20;3.50;70.40
27671;DHT22;15077;49.704;9.908;2024-01-15T15:42:46;3.50;70.40
27671;DHT22;15077;49.704;9.908;2024-01-15T15:45:11;3.50;70.40
27671;DHT22;15077;49.704;9.908;2024-01-15T15:47:38;3.50;70.30
27671;DHT22;15077;49.704;9.908;2024-01-15T15:50:04;3.50;70.30